Time,TemperatureF,DewpointF,PressureIn,WindDirection,WindDirectionDegrees,WindSpeedMPH,WindSpeedGustMPH,Humidity,HourlyPrecipIn,Conditions,Clouds,dailyrainin,SoftwareType,DateUTC
2013-08-06 00:22:00,60.0,-99.9,-100.00,NW,315,0.0,2.0,-999,0.00,,,-99.99,,2013-08-06 06:22:00,
2013-08-06 00:32:00,59.0,-99.9,-100.00,North,0,0.0,2.0,-999,0.00,,,-99.99,,2013-08-06 06:32:00,
2013-08-06 00:43:00,59.0,-99.9,-100.00,SW,225,0.0,2.0,-999,0.00,,,-99.99,,2013-08-06 06:43:00,
2013-08-06 00:52:00,59.0,-99.9,-100.00,ENE,67,0.0,4.0,-999,0.00,,,-99.99,,2013-08-06 06:52:00,
2013-08-06 01:02:00,59.0,-99.9,-100.00,South,180,0.0,1.0,-999,0.00,,,-99.99,,2013-08-06 07:02:00,
2013-08-06 01:12:00,58.0,-99.9,-100.00,SW,236,0.0,2.0,-999,0.00,,,-99.99,,2013-08-06 07:12:00,
2013-08-06 01:22:00,58.0,-99.9,-100.00,NNE,22,0.0,1.0,-999,0.00,,,-99.99,,2013-08-06 07:22:00,
2013-08-06 01:32:00,58.0,-99.9,-100.00,East,98,0.0,1.0,-999,0.00,,,-99.99,,2013-08-06 07:32:00,
2013-08-06 01:44:00,58.0,-99.9,-100.00,North,4,1.0,2.0,-999,0.00,,,-99.99,,2013-08-06 07:44:00,
2013-08-06 01:53:00,58.0,-99.9,-100.00,NNW,337,1.0,2.0,-999,0.00,,,-99.99,,2013-08-06 07:53:00,
2013-08-06 02:02:00,58.0,-99.9,-100.00,SW,225,0.0,2.0,-999,0.00,,,-99.99,,2013-08-06 08:02:00,
2013-08-06 02:11:00,58.0,-99.9,-100.00,NNW,337,0.0,2.0,-999,0.00,,,-99.99,,2013-08-06 08:11:00,
2013-08-06 02:22:00,58.0,-99.9,-100.00,NNW,337,0.0,0.0,-999,0.00,,,-99.99,,2013-08-06 08:22:00,
2013-08-06 02:33:00,58.0,-99.9,-100.00,SW,236,1.0,4.0,-999,0.00,,,-99.99,,2013-08-06 08:33:00,
2013-08-06 02:43:00,58.0,-99.9,-100.00,NNW,337,1.0,2.0,-999,0.00,,,-99.99,,2013-08-06 08:43:00,
2013-08-06 02:52:00,58.0,-99.9,-100.00,SW,216,0.0,2.0,-999,0.00,,,-99.99,,2013-08-06 08:52:00,
2013-08-06 03:02:00,57.0,-99.9,-100.00,NE,41,0.0,0.0,-999,0.00,,,-99.99,,2013-08-06 09:02:00,
2013-08-06 03:12:00,56.0,-99.9,-100.00,ENE,67,0.0,0.0,-999,0.00,,,-99.99,,2013-08-06 09:12:00,
2013-08-06 03:22:00,56.0,-99.9,-100.00,NNW,337,0.0,1.0,-999,0.00,,,-99.99,,2013-08-06 09:22:00,
2013-08-06 03:33:00,56.0,-99.9,-100.00,North,354,0.0,0.0,-999,0.00,,,-99.99,,2013-08-06 09:33:00,
2013-08-06 03:43:00,55.0,-99.9,-100.00,NNW,337,0.0,1.0,-999,0.00,,,-99.99,,2013-08-06 09:43:00,
2013-08-06 03:52:00,55.0,-99.9,-100.00,NNW,337,0.0,2.0,-999,0.00,,,-99.99,,2013-08-06 09:52:00,
2013-08-06 04:02:00,55.0,-99.9,-100.00,NNW,337,0.0,1.0,-999,0.00,,,-99.99,,2013-08-06 10:02:00,
2013-08-06 04:12:00,55.0,-99.9,-100.00,NNW,337,0.0,1.0,-999,0.00,,,-99.99,,2013-08-06 10:12:00,
2013-08-06 04:22:00,55.0,-99.9,-100.00,East,90,0.0,1.0,-999,0.00,,,-99.99,,2013-08-06 10:22:00,
2013-08-06 04:32:00,54.0,-99.9,-100.00,NNW,337,0.0,2.0,-999,0.00,,,-99.99,,2013-08-06 10:32:00,
2013-08-06 04:43:00,54.0,-99.9,-100.00,NNW,337,1.0,2.0,-999,0.00,,,-99.99,,2013-08-06 10:43:00,
2013-08-06 04:53:00,54.0,-99.9,-100.00,NNW,337,0.0,1.0,-999,0.00,,,-99.99,,2013-08-06 10:53:00,
2013-08-06 05:02:00,53.0,-99.9,-100.00,NNW,337,1.0,2.0,-999,0.00,,,-99.99,,2013-08-06 11:02:00,
2013-08-06 05:11:00,54.0,-99.9,-100.00,NNW,337,0.0,1.0,-999,0.00,,,-99.99,,2013-08-06 11:11:00,
2013-08-06 05:22:00,54.0,-99.9,-100.00,ENE,57,0.0,1.0,-999,0.00,,,-99.99,,2013-08-06 11:22:00,
2013-08-06 05:32:00,53.0,-99.9,-100.00,NE,48,1.0,2.0,-999,0.00,,,-99.99,,2013-08-06 11:32:00,
2013-08-06 05:43:00,53.0,-99.9,-100.00,NNW,337,0.0,0.0,-999,0.00,,,-99.99,,2013-08-06 11:43:00,
2013-08-06 05:53:00,52.0,-99.9,-100.00,NNW,337,0.0,1.0,-999,0.00,,,-99.99,,2013-08-06 11:53:00,
2013-08-06 06:02:00,52.0,-99.9,-100.00,NNW,337,0.0,2.0,-999,0.00,,,-99.99,,2013-08-06 12:02:00,
2013-08-06 06:12:00,52.0,-99.9,-100.00,SSE,153,0.0,1.0,-999,0.00,,,-99.99,,2013-08-06 12:12:00,
2013-08-06 06:22:00,52.0,-99.9,-100.00,NNW,337,0.0,2.0,-999,0.00,,,-99.99,,2013-08-06 12:22:00,
2013-08-06 06:32:00,52.0,-99.9,-100.00,East,101,0.0,0.0,-999,0.00,,,-99.99,,2013-08-06 12:32:00,
2013-08-06 06:43:00,52.0,-99.9,-100.00,NE,40,0.0,0.0,-999,0.00,,,-99.99,,2013-08-06 12:43:00,
2013-08-06 06:52:00,52.0,-99.9,-100.00,NNE,22,0.0,1.0,-999,0.00,,,-99.99,,2013-08-06 12:52:00,
2013-08-06 07:02:00,52.0,-99.9,-100.00,ESE,112,0.0,2.0,-999,0.00,,,-99.99,,2013-08-06 13:02:00,
2013-08-06 07:11:00,52.0,-99.9,-100.00,South,180,1.0,2.0,-999,0.00,,,-99.99,,2013-08-06 13:11:00,
2013-08-06 07:22:00,52.0,-99.9,-100.00,NNW,337,0.0,2.0,-999,0.00,,,-99.99,,2013-08-06 13:22:00,
2013-08-06 07:32:00,53.0,-99.9,-100.00,NNW,337,0.0,1.0,-999,0.00,,,-99.99,,2013-08-06 13:32:00,
2013-08-06 07:42:00,53.0,-99.9,-100.00,NNW,337,0.0,3.0,-999,0.00,,,-99.99,,2013-08-06 13:42:00,
2013-08-06 08:32:00,61.0,-99.9,-100.00,ESE,118,2.0,4.0,-999,0.00,,,-99.99,,2013-08-06 14:32:00,
2013-08-06 08:42:00,61.0,-99.9,-100.00,SE,145,2.0,4.0,-999,0.00,,,-99.99,,2013-08-06 14:42:00,
2013-08-06 09:23:00,68.0,-99.9,-100.00,South,190,1.0,3.0,-999,0.00,,,-99.99,,2013-08-06 15:23:00,
2013-08-06 09:33:00,67.0,-99.9,-100.00,SSE,155,1.0,3.0,-999,0.00,,,-99.99,,2013-08-06 15:33:00,
2013-08-06 09:44:00,67.0,-99.9,-100.00,ESE,119,0.0,2.0,-999,0.00,,,-99.99,,2013-08-06 15:44:00,
2013-08-06 13:11:00,85.0,-99.9,-100.00,NNW,328,2.0,5.0,-999,0.00,,,-99.99,,2013-08-06 19:11:00,
2013-08-06 13:22:00,84.0,-99.9,-100.00,NW,318,2.0,6.0,-999,0.00,,,-99.99,,2013-08-06 19:22:00,
2013-08-06 13:32:00,80.0,-99.9,-100.00,NW,319,4.0,8.0,-999,0.00,,,-99.99,,2013-08-06 19:32:00,
2013-08-06 13:42:00,78.0,-99.9,-100.00,NW,324,1.0,7.0,-999,0.00,,,-99.99,,2013-08-06 19:42:00,
2013-08-06 13:52:00,77.0,-99.9,-100.00,West,270,0.0,2.0,-999,0.00,,,-99.99,,2013-08-06 19:52:00,
2013-08-06 14:02:00,76.0,-99.9,-100.00,NE,52,1.0,5.0,-999,0.00,,,-99.99,,2013-08-06 20:02:00,
2013-08-06 14:11:00,75.0,-99.9,-100.00,East,98,1.0,3.0,-999,0.00,,,-99.99,,2013-08-06 20:11:00,
2013-08-06 14:22:00,74.0,-99.9,-100.00,South,185,3.0,6.0,-999,0.00,,,-99.99,,2013-08-06 20:22:00,
2013-08-06 14:32:00,74.0,-99.9,-100.00,SSE,159,2.0,8.0,-999,0.00,,,-99.99,,2013-08-06 20:32:00,
2013-08-06 14:44:00,74.0,-99.9,-100.00,East,100,2.0,4.0,-999,0.00,,,-99.99,,2013-08-06 20:44:00,
2013-08-06 14:52:00,75.0,-99.9,-100.00,SE,138,1.0,3.0,-999,0.00,,,-99.99,,2013-08-06 20:52:00,
2013-08-06 15:02:00,75.0,-99.9,-100.00,NW,315,0.0,3.0,-999,0.00,,,-99.99,,2013-08-06 21:02:00,
2013-08-06 15:12:00,76.0,-99.9,-100.00,NW,316,0.0,1.0,-999,0.00,,,-99.99,,2013-08-06 21:12:00,
2013-08-06 15:22:00,76.0,-99.9,-100.00,NW,317,1.0,3.0,-999,0.00,,,-99.99,,2013-08-06 21:22:00,
2013-08-06 15:32:00,76.0,-99.9,-100.00,NW,316,0.0,0.0,-999,0.00,,,-99.99,,2013-08-06 21:32:00,
2013-08-06 15:43:00,76.0,-99.9,-100.00,SE,130,7.0,10.0,-999,0.00,,,-99.99,,2013-08-06 21:43:00,
2013-08-06 15:53:00,74.0,-99.9,-100.00,SE,142,2.0,5.0,-999,0.00,,,-99.99,,2013-08-06 21:53:00,
2013-08-06 16:02:00,74.0,-99.9,-100.00,SE,126,2.0,5.0,-999,0.00,,,-99.99,,2013-08-06 22:02:00,
2013-08-06 16:12:00,74.0,-99.9,-100.00,SSE,164,3.0,5.0,-999,0.00,,,-99.99,,2013-08-06 22:12:00,
2013-08-06 16:22:00,74.0,-99.9,-100.00,SE,140,2.0,6.0,-999,0.00,,,-99.99,,2013-08-06 22:22:00,
2013-08-06 16:32:00,75.0,-99.9,-100.00,ESE,114,4.0,7.0,-999,0.00,,,-99.99,,2013-08-06 22:32:00,
2013-08-06 16:43:00,77.0,-99.9,-100.00,ESE,122,4.0,8.0,-999,0.00,,,-99.99,,2013-08-06 22:43:00,
2013-08-06 16:53:00,77.0,-99.9,-100.00,SE,132,5.0,11.0,-999,0.00,,,-99.99,,2013-08-06 22:53:00,
2013-08-06 17:02:00,76.0,-99.9,-100.00,ESE,120,4.0,11.0,-999,0.00,,,-99.99,,2013-08-06 23:02:00,
2013-08-06 17:11:00,76.0,-99.9,-100.00,SE,138,2.0,8.0,-999,0.00,,,-99.99,,2013-08-06 23:11:00,
2013-08-06 17:22:00,78.0,-99.9,-100.00,SSE,157,3.0,6.0,-999,0.00,,,-99.99,,2013-08-06 23:22:00,
2013-08-06 17:33:00,76.0,-99.9,-100.00,NNW,337,4.0,6.0,-999,0.00,,,-99.99,,2013-08-06 23:33:00,
2013-08-06 17:43:00,74.0,-99.9,-100.00,SE,125,1.0,11.0,-999,0.00,,,-99.99,,2013-08-06 23:43:00,
2013-08-06 17:52:00,72.0,-99.9,-100.00,SE,128,4.0,8.0,-999,0.00,,,-99.99,,2013-08-06 23:52:00,
2013-08-06 18:01:00,71.0,-99.9,-100.00,NNW,337,5.0,7.0,-999,0.00,,,-99.99,,2013-08-07 00:01:00,
2013-08-06 18:11:00,71.0,-99.9,-100.00,WSW,240,0.0,8.0,-999,0.00,,,-99.99,,2013-08-07 00:11:00,
2013-08-06 18:22:00,71.0,-99.9,-100.00,WSW,247,1.0,6.0,-999,0.00,,,-99.99,,2013-08-07 00:22:00,
2013-08-06 18:32:00,70.0,-99.9,-100.00,North,0,2.0,4.0,-999,0.00,,,-99.99,,2013-08-07 00:32:00,
2013-08-06 18:43:00,70.0,-99.9,-100.00,NNW,337,3.0,7.0,-999,0.00,,,-99.99,,2013-08-07 00:43:00,
2013-08-06 18:52:00,69.0,-99.9,-100.00,WNW,303,1.0,3.0,-999,0.00,,,-99.99,,2013-08-07 00:52:00,
2013-08-06 19:01:00,69.0,-99.9,-100.00,SSE,154,3.0,4.0,-999,0.00,,,-99.99,,2013-08-07 01:01:00,
2013-08-06 19:11:00,68.0,-99.9,-100.00,ESE,116,1.0,6.0,-999,0.00,,,-99.99,,2013-08-07 01:11:00,
2013-08-06 19:22:00,67.0,-99.9,-100.00,SE,132,2.0,5.0,-999,0.00,,,-99.99,,2013-08-07 01:22:00,
2013-08-06 19:32:00,67.0,-99.9,-100.00,NNW,337,0.0,1.0,-999,0.00,,,-99.99,,2013-08-07 01:32:00,
2013-08-06 19:44:00,67.0,-99.9,-100.00,South,180,0.0,5.0,-999,0.00,,,-99.99,,2013-08-07 01:44:00,
2013-08-06 19:53:00,67.0,-99.9,-100.00,SE,135,1.0,2.0,-999,0.00,,,-99.99,,2013-08-07 01:53:00,
2013-08-06 20:02:00,67.0,-99.9,-100.00,SE,130,1.0,6.0,-999,0.00,,,-99.99,,2013-08-07 02:02:00,
2013-08-06 20:12:00,67.0,-99.9,-100.00,ESE,120,1.0,2.0,-999,0.00,,,-99.99,,2013-08-07 02:12:00,
2013-08-06 20:22:00,67.0,-99.9,-100.00,NNW,337,0.0,2.0,-999,0.00,,,-99.99,,2013-08-07 02:22:00,
2013-08-06 20:33:00,67.0,-99.9,-100.00,ESE,112,2.0,4.0,-999,0.00,,,-99.99,,2013-08-07 02:33:00,
2013-08-06 20:43:00,67.0,-99.9,-100.00,WSW,247,1.0,5.0,-999,0.00,,,-99.99,,2013-08-07 02:43:00,
2013-08-06 20:53:00,67.0,-99.9,-100.00,North,0,3.0,4.0,-999,0.00,,,-99.99,,2013-08-07 02:53:00,
2013-08-06 21:01:00,66.0,-99.9,-100.00,SW,232,0.0,7.0,-999,0.00,,,-99.99,,2013-08-07 03:01:00,
2013-08-06 21:12:00,66.0,-99.9,-100.00,NNW,337,2.0,3.0,-999,0.00,,,-99.99,,2013-08-07 03:12:00,
2013-08-06 21:23:00,65.0,-99.9,-100.00,NW,315,0.0,1.0,-999,0.00,,,-99.99,,2013-08-07 03:23:00,
2013-08-06 21:32:00,64.0,-99.9,-100.00,NNE,22,0.0,1.0,-999,0.00,,,-99.99,,2013-08-07 03:32:00,
2013-08-06 21:43:00,64.0,-99.9,-100.00,NW,315,0.0,2.0,-999,0.00,,,-99.99,,2013-08-07 03:43:00,
2013-08-06 21:52:00,64.0,-99.9,-100.00,NNW,337,0.0,1.0,-999,0.00,,,-99.99,,2013-08-07 03:52:00,
2013-08-06 22:01:00,63.0,-99.9,-100.00,SW,228,0.0,1.0,-999,0.00,,,-99.99,,2013-08-07 04:01:00,
2013-08-06 22:11:00,63.0,-99.9,-100.00,NNW,337,0.0,1.0,-999,0.00,,,-99.99,,2013-08-07 04:11:00,
2013-08-06 22:22:00,63.0,-99.9,-100.00,NNW,337,0.0,1.0,-999,0.00,,,-99.99,,2013-08-07 04:22:00,
2013-08-06 22:33:00,63.0,-99.9,-100.00,NNW,337,0.0,1.0,-999,0.00,,,-99.99,,2013-08-07 04:33:00,
2013-08-06 22:43:00,63.0,-99.9,-100.00,NNW,337,0.0,1.0,-999,0.00,,,-99.99,,2013-08-07 04:43:00,
2013-08-06 22:52:00,62.0,-99.9,-100.00,NNW,337,0.0,1.0,-999,0.00,,,-99.99,,2013-08-07 04:52:00,
2013-08-06 23:02:00,61.0,-99.9,-100.00,NE,50,0.0,0.0,-999,0.00,,,-99.99,,2013-08-07 05:02:00,
2013-08-06 23:11:00,61.0,-99.9,-100.00,WSW,240,0.0,1.0,-999,0.00,,,-99.99,,2013-08-07 05:11:00,
2013-08-06 23:22:00,60.0,-99.9,-100.00,North,0,0.0,1.0,-999,0.00,,,-99.99,,2013-08-07 05:22:00,
2013-08-06 23:32:00,60.0,-99.9,-100.00,NNW,337,0.0,1.0,-999,0.00,,,-99.99,,2013-08-07 05:32:00,
2013-08-06 23:43:00,60.0,-99.9,-100.00,WSW,247,1.0,2.0,-999,0.00,,,-99.99,,2013-08-07 05:43:00,
2013-08-06 23:52:00,60.0,-99.9,-100.00,NNW,337,0.0,0.0,-999,0.00,,,-99.99,,2013-08-07 05:52:00,